Time;durP1;ratioP1;P1;durP2;ratioP2;P2;SDS_P1;SDS_P2;PMS_P1;PMS_P2;Temp;Humidity;BMP_temperature;BMP_pressure;BME280_temperature;BME280_humidity;BME280_pressure;Samples;Min_cycle;Max_cycle;Signal;HPM_P1;HPM_P2
2021/05/30 00:01:57;;;;;;;3.30;2.97;;;;;;;;;;6165606;23;20909;-82
2021/05/30 00:04:24;;;;;;;4.60;4.20;;;;;;;;;;6166811;23;20371;-82
2021/05/30 00:06:57;;;;;;;5.00;4.70;;;;;;;;;;6164412;23;20368;-82
2021/05/30 00:09:23;;;;;;;4.40;3.90;;;;;;;;;;6165920;23;20357;-82
2021/05/30 00:11:50;;;;;;;4.70;4.40;;;;;;;;;;6165024;23;20728;-82
2021/05/30 00:14:16;;;;;;;6.10;4.20;;;;;;;;;;6163629;23;20382;-82
2021/05/30 00:16:42;;;;;;;4.83;4.33;;;;;;;;;;6165831;23;20362;-83
2021/05/30 00:19:11;;;;;;;4.63;4.13;;;;;;;;;;6167803;23;20372;-82
2021/05/30 00:21:37;;;;;;;4.70;4.30;;;;;;;;;;6167098;23;20443;-84
2021/05/30 00:24:04;;;;;;;3.63;3.37;;;;;;;;;;6168565;23;20343;-83
2021/05/30 00:26:33;;;;;;;4.70;4.33;;;;;;;;;;6181486;23;20397;-83
2021/05/30 00:29:11;;;;;;;4.73;4.33;;;;;;;;;;6182067;23;20339;-83
2021/05/30 00:31:40;;;;;;;4.43;4.03;;;;;;;;;;6174079;23;20383;-83
2021/05/30 00:34:09;;;;;;;4.37;4.07;;;;;;;;;;6163930;23;20870;-83
2021/05/30 00:36:35;;;;;;;5.77;4.03;;;;;;;;;;6163745;23;20476;-83
2021/05/30 00:39:01;;;;;;;6.10;5.60;;;;;;;;;;6165671;23;20394;-83
2021/05/30 00:41:27;;;;;;;5.23;4.80;;;;;;;;;;6167866;23;20418;-83
2021/05/30 00:43:54;;;;;;;5.97;4.50;;;;;;;;;;6167077;23;20378;-83
2021/05/30 00:46:24;;;;;;;5.00;4.60;;;;;;;;;;6166676;23;20363;-83
2021/05/30 00:48:56;;;;;;;5.10;3.97;;;;;;;;;;6166217;23;20458;-83
2021/05/30 00:51:22;;;;;;;4.13;3.83;;;;;;;;;;6166327;23;20470;-83
2021/05/30 00:53:48;;;;;;;5.60;5.10;;;;;;;;;;6166149;23;20360;-83
2021/05/30 00:56:15;;;;;;;3.50;3.20;;;;;;;;;;6165839;23;20865;-83
2021/05/30 00:58:45;;;;;;;4.37;3.93;;;;;;;;;;6168015;23;20450;-83
2021/05/30 01:01:11;;;;;;;5.77;5.07;;;;;;;;;;6166640;23;20415;-83
2021/05/30 01:03:40;;;;;;;4.20;3.17;;;;;;;;;;6166436;23;20897;-83
2021/05/30 01:06:09;;;;;;;5.33;4.83;;;;;;;;;;6165811;23;20387;-83
2021/05/30 01:08:35;;;;;;;4.73;4.23;;;;;;;;;;6168765;23;20394;-83
2021/05/30 01:11:02;;;;;;;5.20;3.93;;;;;;;;;;6168421;23;20370;-84
2021/05/30 01:13:29;;;;;;;3.93;3.73;;;;;;;;;;6167461;23;20435;-84
2021/05/30 01:15:55;;;;;;;5.57;5.07;;;;;;;;;;6166680;23;20375;-83
2021/05/30 01:18:26;;;;;;;4.60;4.20;;;;;;;;;;6166548;23;20399;-83
2021/05/30 01:20:53;;;;;;;4.23;3.83;;;;;;;;;;6166134;23;20368;-83
2021/05/30 01:23:19;;;;;;;4.90;4.50;;;;;;;;;;6167689;23;20373;-84
2021/05/30 01:25:46;;;;;;;5.20;4.77;;;;;;;;;;6166441;23;20378;-83
2021/05/30 01:28:12;;;;;;;6.70;4.87;;;;;;;;;;6168397;23;20390;-82
2021/05/30 01:30:39;;;;;;;5.63;5.13;;;;;;;;;;6168272;23;20463;-83
2021/05/30 01:33:06;;;;;;;4.30;3.97;;;;;;;;;;6167643;23;20399;-83
2021/05/30 01:35:32;;;;;;;5.90;4.53;;;;;;;;;;6164642;23;20382;-84
2021/05/30 01:37:58;;;;;;;5.17;4.57;;;;;;;;;;6165513;23;20399;-84
2021/05/30 01:40:25;;;;;;;4.90;4.50;;;;;;;;;;6166209;23;20380;-83
2021/05/30 01:42:52;;;;;;;6.23;4.70;;;;;;;;;;6168218;23;20470;-83
2021/05/30 01:45:19;;;;;;;7.30;4.83;;;;;;;;;;6167367;23;20371;-83
2021/05/30 01:47:46;;;;;;;5.60;4.50;;;;;;;;;;6166420;23;20393;-83
2021/05/30 01:50:13;;;;;;;5.27;4.87;;;;;;;;;;6165417;23;20395;-83
2021/05/30 01:52:39;;;;;;;4.30;3.90;;;;;;;;;;6166325;23;20379;-83
2021/05/30 01:55:07;;;;;;;5.70;4.60;;;;;;;;;;6165411;23;20430;-83
2021/05/30 01:57:37;;;;;;;9.43;5.43;;;;;;;;;;6166745;23;20500;-83
2021/05/30 02:00:03;;;;;;;4.80;4.40;;;;;;;;;;6167505;23;20463;-83
2021/05/30 02:02:38;;;;;;;5.00;4.10;;;;;;;;;;6166797;23;20454;-81
2021/05/30 02:05:08;;;;;;;4.73;4.07;;;;;;;;;;6165185;23;20368;-83
2021/05/30 02:07:39;;;;;;;4.77;4.27;;;;;;;;;;6165904;23;20388;-83
2021/05/30 02:10:05;;;;;;;4.90;4.17;;;;;;;;;;6164920;23;20398;-83
2021/05/30 02:12:32;;;;;;;4.90;4.50;;;;;;;;;;6166992;23;20376;-83
2021/05/30 02:14:58;;;;;;;4.43;4.07;;;;;;;;;;6166216;23;20376;-83
2021/05/30 02:17:25;;;;;;;4.13;3.83;;;;;;;;;;6166638;23;20456;-83
2021/05/30 02:19:52;;;;;;;5.50;4.13;;;;;;;;;;6170126;23;20371;-83
2021/05/30 02:22:18;;;;;;;5.90;5.27;;;;;;;;;;6167825;23;20411;-83
2021/05/30 02:24:45;;;;;;;4.63;4.30;;;;;;;;;;6169776;23;20382;-83
2021/05/30 02:27:11;;;;;;;4.97;4.53;;;;;;;;;;6167504;23;20392;-83
2021/05/30 02:29:38;;;;;;;7.10;4.20;;;;;;;;;;6164541;23;20399;-83
2021/05/30 02:32:06;;;;;;;6.57;4.70;;;;;;;;;;6165587;23;20376;-83
2021/05/30 02:34:32;;;;;;;4.70;4.20;;;;;;;;;;6162218;23;20456;-83
2021/05/30 02:36:58;;;;;;;4.33;4.03;;;;;;;;;;6161978;23;20395;-83
2021/05/30 02:39:24;;;;;;;3.43;3.23;;;;;;;;;;6162051;23;20364;-83
2021/05/30 02:41:56;;;;;;;6.10;3.90;;;;;;;;;;6162678;23;20473;-83
2021/05/30 02:44:25;;;;;;;4.63;3.80;;;;;;;;;;6163153;23;20427;-83
2021/05/30 02:46:52;;;;;;;4.10;3.80;;;;;;;;;;6159918;23;20368;-83
2021/05/30 02:49:18;;;;;;;4.50;3.27;;;;;;;;;;6162002;23;20382;-83
2021/05/30 02:51:44;;;;;;;6.10;4.43;;;;;;;;;;6161046;23;20738;-83
2021/05/30 02:54:10;;;;;;;4.57;4.27;;;;;;;;;;6161160;23;20451;-83
2021/05/30 02:56:37;;;;;;;4.13;3.73;;;;;;;;;;6161419;23;20918;-83
2021/05/30 02:59:03;;;;;;;4.60;4.30;;;;;;;;;;6163619;23;20394;-83
2021/05/30 03:01:29;;;;;;;4.43;3.57;;;;;;;;;;6165089;23;20502;-83
2021/05/30 03:03:55;;;;;;;5.07;4.43;;;;;;;;;;6166980;23;20368;-83
2021/05/30 03:06:24;;;;;;;5.00;4.13;;;;;;;;;;6166902;23;20376;-83
2021/05/30 03:08:51;;;;;;;3.57;3.27;;;;;;;;;;6166564;23;20439;-83
2021/05/30 03:11:21;;;;;;;4.40;4.00;;;;;;;;;;6164568;23;21049;-83
2021/05/30 03:13:47;;;;;;;5.10;4.03;;;;;;;;;;6164758;23;20435;-83
2021/05/30 03:16:17;;;;;;;4.53;4.23;;;;;;;;;;6163995;23;20378;-83
2021/05/30 03:18:46;;;;;;;3.67;3.23;;;;;;;;;;6165843;23;20396;-83
2021/05/30 03:21:23;;;;;;;7.00;4.00;;;;;;;;;;6140608;23;20416;-83
2021/05/30 03:24:00;;;;;;;7.90;4.27;;;;;;;;;;6166136;23;20407;-83
2021/05/30 03:26:26;;;;;;;5.43;5.03;;;;;;;;;;6166159;23;20447;-83
2021/05/30 03:28:53;;;;;;;4.60;3.73;;;;;;;;;;6164944;23;20383;-84
2021/05/30 03:31:22;;;;;;;3.30;3.00;;;;;;;;;;6139829;23;20426;-82
2021/05/30 03:33:54;;;;;;;5.47;4.67;;;;;;;;;;6163737;23;20380;-83
2021/05/30 03:36:25;;;;;;;5.40;3.90;;;;;;;;;;6164287;23;20374;-82
2021/05/30 03:39:00;;;;;;;4.93;4.53;;;;;;;;;;6163744;23;20734;-82
2021/05/30 03:41:34;;;;;;;4.63;4.10;;;;;;;;;;6165935;23;20439;-82
2021/05/30 03:44:06;;;;;;;7.40;5.00;;;;;;;;;;6163954;23;20336;-82
2021/05/30 03:46:33;;;;;;;3.73;3.20;;;;;;;;;;6165953;23;20356;-82
2021/05/30 03:48:59;;;;;;;3.80;3.37;;;;;;;;;;6165116;23;20388;-82
2021/05/30 03:51:29;;;;;;;3.90;3.60;;;;;;;;;;6175822;23;20368;-82
2021/05/30 03:54:00;;;;;;;4.53;4.00;;;;;;;;;;6179631;23;20420;-81
2021/05/30 03:56:28;;;;;;;5.07;3.23;;;;;;;;;;6179339;23;20390;-81
2021/05/30 03:58:54;;;;;;;3.80;3.50;;;;;;;;;;6172173;23;20417;-82
2021/05/30 04:01:20;;;;;;;5.40;3.40;;;;;;;;;;6164525;23;20419;-82
2021/05/30 04:03:49;;;;;;;3.60;3.30;;;;;;;;;;6163575;23;20374;-82
2021/05/30 04:06:17;;;;;;;4.67;3.27;;;;;;;;;;6163355;23;20707;-82
2021/05/30 04:08:46;;;;;;;3.23;2.93;;;;;;;;;;6162440;23;20434;-82
2021/05/30 04:11:13;;;;;;;3.40;3.10;;;;;;;;;;6164509;23;20372;-82
2021/05/30 04:13:39;;;;;;;3.50;3.20;;;;;;;;;;6162711;23;20387;-82
2021/05/30 04:16:07;;;;;;;3.00;2.70;;;;;;;;;;6162559;23;20379;-82
2021/05/30 04:18:34;;;;;;;4.27;3.87;;;;;;;;;;6163724;23;20438;-83
2021/05/30 04:21:13;;;;;;;4.17;3.87;;;;;;;;;;6164133;23;20416;-82
2021/05/30 04:23:39;;;;;;;5.53;4.30;;;;;;;;;;6162896;23;20375;-83
2021/05/30 04:26:15;;;;;;;3.20;3.00;;;;;;;;;;6164837;23;20412;-83
2021/05/30 04:28:44;;;;;;;3.53;3.23;;;;;;;;;;6164045;23;20730;-83
2021/05/30 04:31:13;;;;;;;3.80;3.10;;;;;;;;;;6165806;23;20374;-83
2021/05/30 04:33:42;;;;;;;3.40;3.10;;;;;;;;;;6164274;23;20367;-83
2021/05/30 04:36:08;;;;;;;3.60;3.30;;;;;;;;;;6166314;23;20703;-83
2021/05/30 04:38:34;;;;;;;3.20;2.57;;;;;;;;;;6166054;23;20399;-83
2021/05/30 04:41:00;;;;;;;3.00;2.80;;;;;;;;;;6166292;23;20859;-82
2021/05/30 04:43:29;;;;;;;2.83;2.63;;;;;;;;;;6165942;23;20379;-82
2021/05/30 04:45:56;;;;;;;4.00;2.80;;;;;;;;;;6167265;23;20410;-82
2021/05/30 04:48:33;;;;;;;4.07;3.47;;;;;;;;;;6166702;23;20964;-82
2021/05/30 04:51:14;;;;;;;2.87;2.37;;;;;;;;;;6166490;23;20382;-82
2021/05/30 04:53:44;;;;;;;3.23;3.00;;;;;;;;;;6165557;23;20379;-83
2021/05/30 04:56:11;;;;;;;5.80;3.27;;;;;;;;;;6166961;23;20446;-83
2021/05/30 04:58:38;;;;;;;3.13;2.60;;;;;;;;;;6191443;23;20438;-84
2021/05/30 05:01:05;;;;;;;2.73;2.23;;;;;;;;;;6207457;23;20386;-84
2021/05/30 05:03:32;;;;;;;3.73;2.27;;;;;;;;;;6207692;23;20387;-86
2021/05/30 05:05:59;;;;;;;3.80;3.40;;;;;;;;;;6208500;23;20362;-84
2021/05/30 05:08:25;;;;;;;2.87;2.63;;;;;;;;;;6190595;23;20406;-84
2021/05/30 05:10:52;;;;;;;5.47;2.77;;;;;;;;;;6178306;23;20371;-86
2021/05/30 05:13:23;;;;;;;3.20;3.00;;;;;;;;;;6176525;23;20383;-85
2021/05/30 05:15:51;;;;;;;2.40;2.20;;;;;;;;;;6149501;23;20364;-86
2021/05/30 05:18:18;;;;;;;2.90;2.70;;;;;;;;;;6173676;23;20419;-86
2021/05/30 05:20:44;;;;;;;2.80;2.40;;;;;;;;;;6175107;23;20392;-84
2021/05/30 05:23:15;;;;;;;5.60;3.03;;;;;;;;;;6176955;23;20402;-83
2021/05/30 05:25:41;;;;;;;2.47;2.37;;;;;;;;;;6176149;23;20933;-85
2021/05/30 05:28:07;;;;;;;4.47;2.67;;;;;;;;;;6178108;23;20900;-86
2021/05/30 05:30:33;;;;;;;3.53;2.97;;;;;;;;;;6176113;23;20423;-86
2021/05/30 05:33:02;;;;;;;3.10;2.90;;;;;;;;;;6177618;23;20472;-84
2021/05/30 05:35:29;;;;;;;6.40;3.13;;;;;;;;;;6174693;23;20379;-85
2021/05/30 05:37:55;;;;;;;3.93;3.50;;;;;;;;;;6176521;23;20384;-85
2021/05/30 05:40:22;;;;;;;2.93;2.60;;;;;;;;;;6177474;23;20376;-86
2021/05/30 05:42:48;;;;;;;2.63;1.90;;;;;;;;;;6179457;23;20382;-86
2021/05/30 05:45:17;;;;;;;3.17;2.97;;;;;;;;;;6176513;23;20434;-84
2021/05/30 05:47:44;;;;;;;3.83;2.57;;;;;;;;;;6150754;23;20411;-85
2021/05/30 05:50:11;;;;;;;3.77;2.43;;;;;;;;;;6177482;23;20382;-85
2021/05/30 05:52:37;;;;;;;2.80;2.60;;;;;;;;;;6177134;23;20466;-85
2021/05/30 05:55:04;;;;;;;2.40;2.20;;;;;;;;;;6151335;23;20391;-85
2021/05/30 05:57:30;;;;;;;4.30;4.00;;;;;;;;;;6177448;23;20482;-85
2021/05/30 05:59:56;;;;;;;3.10;2.50;;;;;;;;;;6126366;23;20375;-85
2021/05/30 06:02:22;;;;;;;2.90;2.60;;;;;;;;;;6176792;23;20427;-85
2021/05/30 06:04:48;;;;;;;3.00;2.33;;;;;;;;;;6179250;23;20492;-86
2021/05/30 06:07:14;;;;;;;4.67;2.90;;;;;;;;;;6178408;23;20372;-86
2021/05/30 06:09:42;;;;;;;8.40;2.67;;;;;;;;;;6178064;23;20422;-85
2021/05/30 06:12:11;;;;;;;3.53;2.47;;;;;;;;;;6178810;23;20458;-85
2021/05/30 06:14:44;;;;;;;2.47;2.27;;;;;;;;;;6178744;23;20402;-85
2021/05/30 06:17:29;;;;;;;2.50;1.90;;;;;;;;;;6125021;23;20390;-85
2021/05/30 06:20:04;;;;;;;4.13;2.40;;;;;;;;;;6125735;23;20435;-84
2021/05/30 06:22:33;;;;;;;1.90;1.80;;;;;;;;;;6125997;23;20383;-84
2021/05/30 06:24:59;;;;;;;2.37;2.03;;;;;;;;;;6175675;23;20747;-85
2021/05/30 06:27:28;;;;;;;5.60;2.90;;;;;;;;;;6149384;23;20404;-85
2021/05/30 06:29:54;;;;;;;3.23;2.40;;;;;;;;;;6124258;23;20383;-87
2021/05/30 06:32:26;;;;;;;5.30;2.07;;;;;;;;;;6175468;23;20407;-86
2021/05/30 06:35:05;;;;;;;2.07;1.97;;;;;;;;;;6125862;23;20402;-85
2021/05/30 06:37:31;;;;;;;3.30;2.47;;;;;;;;;;6126147;23;20558;-85
2021/05/30 06:40:00;;;;;;;2.93;2.73;;;;;;;;;;6148579;23;20834;-86
2021/05/30 06:42:29;;;;;;;3.10;2.80;;;;;;;;;;6175387;23;20403;-87
2021/05/30 06:44:58;;;;;;;2.63;2.10;;;;;;;;;;6150203;23;20398;-85
2021/05/30 06:47:24;;;;;;;2.40;1.90;;;;;;;;;;6175472;23;20427;-87
2021/05/30 06:49:53;;;;;;;3.57;2.43;;;;;;;;;;6150390;23;20465;-85
2021/05/30 06:52:19;;;;;;;4.30;3.73;;;;;;;;;;6147739;23;20409;-85
2021/05/30 06:54:45;;;;;;;2.93;2.73;;;;;;;;;;6124483;23;20403;-85
2021/05/30 06:57:13;;;;;;;4.17;1.80;;;;;;;;;;6150628;23;20430;-85
2021/05/30 06:59:39;;;;;;;2.50;2.03;;;;;;;;;;6148832;23;20376;-84
2021/05/30 07:02:05;;;;;;;1.80;1.70;;;;;;;;;;6172507;23;20371;-85
2021/05/30 07:04:32;;;;;;;3.07;1.93;;;;;;;;;;6143536;23;20390;-84
2021/05/30 07:06:58;;;;;;;2.80;2.50;;;;;;;;;;6167827;23;20711;-85
2021/05/30 07:09:24;;;;;;;4.47;2.47;;;;;;;;;;6147095;23;20392;-86
2021/05/30 07:11:50;;;;;;;1.97;1.87;;;;;;;;;;6173943;23;20418;-84
2021/05/30 07:14:16;;;;;;;3.10;2.40;;;;;;;;;;6132664;23;20394;-85
2021/05/30 07:16:42;;;;;;;2.67;2.30;;;;;;;;;;6151170;23;20522;-85
2021/05/30 07:19:09;;;;;;;3.07;2.20;;;;;;;;;;6175117;23;20427;-86
2021/05/30 07:21:35;;;;;;;3.17;2.40;;;;;;;;;;6177574;23;20383;-83
2021/05/30 07:24:01;;;;;;;2.27;2.10;;;;;;;;;;6156856;23;20398;-86
2021/05/30 07:26:27;;;;;;;2.30;2.10;;;;;;;;;;6155488;23;20460;-85
2021/05/30 07:28:53;;;;;;;3.57;2.03;;;;;;;;;;6156264;23;20411;-86
2021/05/30 07:31:19;;;;;;;2.70;2.50;;;;;;;;;;6177704;23;20411;-85
2021/05/30 07:33:46;;;;;;;2.47;2.10;;;;;;;;;;6153118;23;20387;-86
2021/05/30 07:36:12;;;;;;;2.27;2.07;;;;;;;;;;6152722;23;20370;-86
2021/05/30 07:38:41;;;;;;;2.57;1.50;;;;;;;;;;6152842;23;20394;-84
2021/05/30 07:41:07;;;;;;;3.50;2.77;;;;;;;;;;6149653;23;20392;-83
2021/05/30 07:43:33;;;;;;;3.80;2.97;;;;;;;;;;6171196;23;20369;-86
2021/05/30 07:45:59;;;;;;;2.10;1.90;;;;;;;;;;6142088;23;20475;-84
2021/05/30 07:48:25;;;;;;;2.73;2.53;;;;;;;;;;6141869;23;20397;-85
2021/05/30 07:50:53;;;;;;;3.33;2.40;;;;;;;;;;6146107;23;20745;-86
2021/05/30 07:53:19;;;;;;;1.87;1.77;;;;;;;;;;6119331;23;20424;-84
2021/05/30 07:55:45;;;;;;;2.40;2.20;;;;;;;;;;6148486;23;20389;-86
2021/05/30 07:58:12;;;;;;;3.40;2.63;;;;;;;;;;6174939;23;20434;-86
2021/05/30 08:00:38;;;;;;;2.90;2.40;;;;;;;;;;6120092;23;20436;-85
2021/05/30 08:03:04;;;;;;;4.17;2.43;;;;;;;;;;6145788;23;20402;-87
2021/05/30 08:05:30;;;;;;;3.03;2.40;;;;;;;;;;6172258;23;20660;-85
2021/05/30 08:07:56;;;;;;;3.60;2.57;;;;;;;;;;6142435;23;20473;-87
2021/05/30 08:10:28;;;;;;;3.73;2.47;;;;;;;;;;6121118;23;20486;-86
2021/05/30 08:12:55;;;;;;;2.60;2.03;;;;;;;;;;6142284;23;20408;-84
2021/05/30 08:15:21;;;;;;;4.50;3.30;;;;;;;;;;6141955;23;20443;-86
2021/05/30 08:17:47;;;;;;;2.70;2.37;;;;;;;;;;6169312;23;20428;-87
2021/05/30 08:20:14;;;;;;;2.30;2.10;;;;;;;;;;6141150;23;20391;-84
2021/05/30 08:22:50;;;;;;;3.03;2.40;;;;;;;;;;6143706;23;20388;-85
2021/05/30 08:25:43;;;;;;;6.40;2.60;;;;;;;;;;6168889;23;20351;-88
2021/05/30 08:28:35;;;;;;;3.30;2.27;;;;;;;;;;6124816;23;20409;-87
2021/05/30 08:31:02;;;;;;;3.60;2.90;;;;;;;;;;6169543;23;20412;-84
2021/05/30 08:33:31;;;;;;;2.70;2.33;;;;;;;;;;6145251;23;20395;-86
2021/05/30 08:36:01;;;;;;;2.60;2.40;;;;;;;;;;6142619;23;20390;-86
2021/05/30 08:38:27;;;;;;;2.30;2.10;;;;;;;;;;6169094;23;20394;-84
2021/05/30 08:40:53;;;;;;;2.53;2.33;;;;;;;;;;6169910;23;20374;-85
2021/05/30 08:43:20;;;;;;;4.70;3.20;;;;;;;;;;6147466;23;20398;-86
2021/05/30 08:45:55;;;;;;;2.50;1.63;;;;;;;;;;6147566;23;20393;-84
2021/05/30 08:48:27;;;;;;;3.23;2.40;;;;;;;;;;6171085;23;20486;-84
2021/05/30 08:51:15;;;;;;;;;;;;;;;;;;;;;
2021/05/30 08:53:43;;;;;;;4.50;1.97;;;;;;;;;;6155323;23;20382;-84
2021/05/30 08:56:13;;;;;;;4.97;1.83;;;;;;;;;;6130424;23;20362;-84
2021/05/30 08:58:42;;;;;;;3.83;2.60;;;;;;;;;;6170230;23;20472;-85
2021/05/30 09:01:12;;;;;;;4.90;2.33;;;;;;;;;;6118849;23;20421;-84
2021/05/30 09:03:52;;;;;;;2.07;1.83;;;;;;;;;;6118399;23;20540;-84
2021/05/30 09:06:29;;;;;;;;;;;;;;;;;;;;;
2021/05/30 09:08:59;;;;;;;2.27;2.07;;;;;;;;;;6145673;23;20405;-86
2021/05/30 09:11:44;;;;;;;1.77;1.67;;;;;;;;;;6145085;23;20405;-85
2021/05/30 09:14:19;;;;;;;1.87;1.70;;;;;;;;;;6120737;23;20421;-85
2021/05/30 09:16:50;;;;;;;3.40;1.83;;;;;;;;;;6144677;23;20402;-85
2021/05/30 09:19:34;;;;;;;5.37;4.27;;;;;;;;;;6116688;23;20410;-86
2021/05/30 09:22:24;;;;;;;3.23;2.00;;;;;;;;;;6170423;23;20402;-85
2021/05/30 09:25:24;;;;;;;5.50;2.43;;;;;;;;;;6129651;23;20374;-86
2021/05/30 09:28:01;;;;;;;3.33;1.87;;;;;;;;;;6172287;23;20478;-86
2021/05/30 09:30:34;;;;;;;1.90;1.70;;;;;;;;;;6147303;23;20374;-86
2021/05/30 09:33:23;;;;;;;2.80;2.60;;;;;;;;;;6124577;23;20420;-86
2021/05/30 09:35:58;;;;;;;3.33;2.60;;;;;;;;;;6146673;23;20411;-85
2021/05/30 09:38:59;;;;;;;3.97;2.40;;;;;;;;;;6150389;23;20408;-86
2021/05/30 09:41:20;;;;;;;2.13;1.97;;;;;;;;;;6144719;23;20390;-84
2021/05/30 09:47:23;;;;;;;2.50;2.30;;;;;;;;;;6149783;23;20378;-83
2021/05/30 09:50:01;;;;;;;1.90;1.80;;;;;;;;;;6132700;23;20446;-85
2021/05/30 09:52:54;;;;;;;;;;;;;;;;;;;;;
2021/05/30 09:58:27;;;;;;;2.13;1.93;;;;;;;;;;6135853;23;20417;-86
2021/05/30 10:00:55;;;;;;;2.50;1.90;;;;;;;;;;6148956;23;20441;-87
2021/05/30 10:03:35;;;;;;;2.30;1.97;;;;;;;;;;6175568;23;20374;-85
2021/05/30 10:06:10;;;;;;;2.20;2.10;;;;;;;;;;6172489;23;20383;-86
2021/05/30 10:08:46;;;;;;;2.20;2.00;;;;;;;;;;6173856;23;20391;-86
2021/05/30 10:11:16;;;;;;;8.40;2.80;;;;;;;;;;6169572;23;20344;-88
2021/05/30 10:13:46;;;;;;;2.73;1.97;;;;;;;;;;6172929;23;20842;-86
2021/05/30 10:16:19;;;;;;;3.10;2.30;;;;;;;;;;6150364;23;20391;-86
2021/05/30 10:19:10;;;;;;;;;;;;;;;;;;;;;
2021/05/30 10:21:41;;;;;;;4.40;2.70;;;;;;;;;;6173670;23;20398;-85
2021/05/30 10:24:14;;;;;;;2.67;2.00;;;;;;;;;;6146231;23;20403;-85
2021/05/30 10:26:44;;;;;;;2.60;2.40;;;;;;;;;;6147873;23;20383;-83
2021/05/30 10:29:19;;;;;;;4.10;2.03;;;;;;;;;;6166598;23;20407;-84
2021/05/30 10:31:58;;;;;;;3.17;2.40;;;;;;;;;;6146663;23;20477;-85
2021/05/30 10:34:25;;;;;;;3.67;2.97;;;;;;;;;;6172776;23;20838;-86
2021/05/30 10:37:03;;;;;;;7.83;2.70;;;;;;;;;;6172307;23;20374;-85
2021/05/30 10:39:29;;;;;;;6.43;2.80;;;;;;;;;;6171680;23;20371;-84
2021/05/30 10:42:17;;;;;;;3.10;2.20;;;;;;;;;;6170371;23;20374;-87
2021/05/30 10:44:50;;;;;;;6.40;2.37;;;;;;;;;;6170899;23;20375;-88
2021/05/30 10:47:16;;;;;;;2.13;1.97;;;;;;;;;;6173463;23;20375;-86
2021/05/30 10:50:04;;;;;;;4.10;2.40;;;;;;;;;;6171392;23;20363;-87
2021/05/30 10:52:52;;;;;;;3.10;2.53;;;;;;;;;;6177834;23;20407;-86
2021/05/30 10:55:32;;;;;;;2.57;2.20;;;;;;;;;;6174966;23;20411;-86
2021/05/30 11:04:43;;;;;;;3.67;3.37;;;;;;;;;;6169540;23;20375;-86
2021/05/30 11:07:50;;;;;;;2.60;2.33;;;;;;;;;;6176113;23;20379;-85
2021/05/30 11:10:50;;;;;;;2.63;2.37;;;17.90;99.90;;;;;;6145545;23;20417;-85
2021/05/30 11:13:32;;;;;;;6.10;3.70;;;;;;;;;;6143777;23;20424;-84
2021/05/30 11:16:12;;;;;;;2.90;2.53;;;;;;;;;;6143781;23;20411;-84
2021/05/30 11:19:08;;;;;;;3.10;2.80;;;;;;;;;;6135781;23;20392;-83
2021/05/30 11:21:46;;;;;;;2.77;2.57;;;;;;;;;;6137185;23;20388;-83
2021/05/30 11:24:16;;;;;;;2.30;2.10;;;;;;;;;;6136245;23;20383;-82
2021/05/30 11:27:01;;;;;;;2.57;2.37;;;;;;;;;;6135227;23;20523;-84
2021/05/30 11:29:33;;;;;;;3.20;2.70;;;;;;;;;;6135854;23;20398;-84
2021/05/30 11:32:11;;;;;;;3.37;3.07;;;;;;;;;;6115526;23;20404;-84
2021/05/30 11:35:36;;;;;;;3.30;3.00;;;;;;;;;;6113237;23;20617;-84
2021/05/30 11:37:48;;;;;;;2.90;2.17;;;;;;;;;;6116393;23;20735;-84
2021/05/30 11:40:26;;;;;;;3.27;2.97;;;;;;;;;;6110328;23;20372;-84
2021/05/30 11:42:55;;;;;;;3.40;2.23;;;;;;;;;;6108840;23;20388;-84
2021/05/30 11:45:35;;;;;;;2.80;2.50;;;18.10;99.90;;;;;;6158865;23;20471;-83
2021/05/30 11:48:16;;;;;;;2.57;2.20;;;;;;;;;;6134821;23;20404;-84
2021/05/30 11:51:01;;;;;;;2.70;1.93;;;;;;;;;;6157869;23;20388;-83
2021/05/30 11:54:03;;;;;;;3.00;2.60;;;;;;;;;;6134913;23;20447;-84
2021/05/30 11:56:49;;;;;;;3.00;2.23;;;18.20;99.90;;;;;;6128873;23;20371;-84
2021/05/30 12:00:28;;;;;;;3.27;2.30;;;18.50;99.90;;;;;;6133991;23;20404;-85
2021/05/30 12:03:24;;;;;;;4.43;4.03;;;;;;;;;;6022250;23;20399;-85
2021/05/30 12:06:22;;;;;;;3.50;3.00;;;18.30;99.90;;;;;;6000648;23;20366;-84
2021/05/30 12:08:57;;;;;;;4.40;3.30;;;18.50;99.90;;;;;;6024253;23;20410;-85
2021/05/30 12:11:37;;;;;;;3.97;2.77;;;18.60;99.90;;;;;;6025800;23;20485;-85
2021/05/30 12:14:10;;;;;;;3.47;2.60;;;18.60;99.90;;;;;;6000670;23;20458;-84
2021/05/30 12:16:42;;;;;;;2.80;2.37;;;18.50;99.90;;;;;;6024944;23;20790;-84
2021/05/30 12:19:35;;;;;;;7.93;2.77;;;18.40;99.90;;;;;;6047030;23;20407;-84
2021/05/30 12:22:15;;;;;;;2.83;2.53;;;18.80;99.90;;;;;;6011034;23;20482;-84
2021/05/30 12:24:51;;;;;;;2.33;2.13;;;19.20;99.90;;;;;;6046077;23;20363;-82
2021/05/30 12:28:17;;;;;;;3.17;2.97;;;19.20;99.90;;;;;;6026763;23;20402;-84
2021/05/30 12:35:02;;;;;;;3.37;2.40;;;18.70;99.90;;;;;;6135597;23;20399;-83
2021/05/30 12:40:42;;;;;;;3.30;2.80;;;18.90;99.90;;;;;;6169744;23;20442;-85
2021/05/30 12:43:29;;;;;;;2.43;2.23;;;18.60;99.90;;;;;;6170417;23;20874;-85
2021/05/30 12:45:59;;;;;;;3.67;2.70;;;18.60;99.90;;;;;;6120106;23;20394;-83
2021/05/30 12:49:06;;;;;;;2.43;2.23;;;18.60;99.90;;;;;;6168596;23;20387;-85
2021/05/30 12:52:34;;;;;;;3.07;2.77;;;18.80;99.90;;;;;;6118994;23;20454;-83
2021/05/30 12:55:10;;;;;;;2.67;2.57;;;18.80;99.90;;;;;;6151263;23;20356;-83
2021/05/30 12:58:00;;;;;;;4.47;3.07;;;18.90;99.90;;;;;;6142896;23;20969;-84
2021/05/30 13:01:23;;;;;;;2.73;2.53;;;19.20;99.90;;;;;;6147875;23;20406;-84
2021/05/30 13:03:53;;;;;;;4.80;2.80;;;18.90;99.90;;;;;;6106311;23;20419;-84
2021/05/30 13:06:19;;;;;;;4.80;3.20;;;18.70;99.90;;;;;;6168326;23;20378;-84
2021/05/30 13:09:27;;;;;;;;;;;;;;;;;;;;;
2021/05/30 13:11:59;;;;;;;2.57;2.10;;;19.10;99.90;;;;;;6141575;23;20426;-85
2021/05/30 13:14:34;;;;;;;2.33;2.00;;;19.00;99.90;;;;;;6119514;23;20383;-84
2021/05/30 13:17:28;;;;;;;3.57;3.23;;;18.90;99.90;;;;;;6142039;23;20372;-83
2021/05/30 13:20:40;;;;;;;3.83;2.50;;;19.30;99.90;;;;;;6144395;23;20391;-84
2021/05/30 13:23:39;;;;;;;2.70;1.80;;;19.20;99.90;;;;;;6168507;23;20372;-84
2021/05/30 13:26:15;;;;;;;2.53;2.33;;;19.20;99.90;;;;;;6117536;23;20706;-84
2021/05/30 13:28:47;;;;;;;2.80;2.40;;;18.60;99.90;;;;;;6142785;23;20702;-85
2021/05/30 13:31:31;;;;;;;2.40;1.83;;;18.40;99.90;;;;;;6117940;23;20379;-83
2021/05/30 13:33:57;;;;;;;2.90;2.50;;;18.70;99.90;;;;;;6119961;23;20376;-83
2021/05/30 13:36:24;;;;;;;4.07;2.53;;;18.90;99.90;;;;;;6142323;23;20374;-83
2021/05/30 13:38:52;;;;;;;3.27;2.30;;;18.90;99.90;;;;;;6148237;23;20430;-85
2021/05/30 13:41:22;;;;;;;3.37;2.80;;;19.30;99.90;;;;;;6166357;23;20379;-83
2021/05/30 13:43:54;;;;;;;3.20;1.97;;;19.50;99.90;;;;;;6168654;23;20383;-84
2021/05/30 13:46:29;;;;;;;6.00;3.20;;;19.20;99.90;;;;;;6141418;23;20902;-85
2021/05/30 13:49:07;;;;;;;2.30;2.10;;;18.90;99.90;;;;;;6139273;23;20418;-84
2021/05/30 13:51:36;;;;;;;3.43;2.83;;;18.60;99.90;;;;;;6141435;23;20466;-84
2021/05/30 13:54:25;;;;;;;3.20;2.27;;;18.70;99.90;;;;;;6140377;23;20400;-84
2021/05/30 13:57:17;;;;;;;2.93;2.47;;;19.00;99.90;;;;;;6154991;23;20376;-84
2021/05/30 14:00:09;;;;;;;2.63;2.43;;;19.30;99.90;;;;;;6177618;23;20468;-84
2021/05/30 14:03:00;;;;;;;2.60;2.40;;;19.30;99.90;;;;;;6167167;23;20363;-84
2021/05/30 14:05:30;;;;;;;4.20;3.90;;;19.10;99.90;;;;;;6140588;23;20399;-84
2021/05/30 14:08:06;;;;;;;2.03;1.93;;;18.80;99.90;;;;;;6143966;23;20443;-85
2021/05/30 14:10:40;;;;;;;4.90;2.97;;;18.60;99.90;;;;;;6142543;23;20458;-85
2021/05/30 14:13:52;;;;;;;3.37;2.77;;;18.50;99.90;;;;;;6165944;23;20411;-85
2021/05/30 14:17:16;;;;;;;3.43;2.37;;;19.00;99.90;;;;;;6167537;23;20352;-84
2021/05/30 14:19:39;;;;;;;5.50;3.00;;;19.10;99.90;;;;;;6153849;23;20430;-84
2021/05/30 14:22:33;;;;;;;3.53;2.90;;;19.00;99.90;;;;;;6167320;23;20390;-84
2021/05/30 14:25:25;;;;;;;2.13;2.03;;;18.90;99.90;;;;;;6167778;23;20368;-85
2021/05/30 14:28:00;;;;;;;5.50;3.60;;;18.70;99.90;;;;;;6169271;23;20738;-85
2021/05/30 14:30:56;;;;;;;;;;;;;;;;;;;;;
2021/05/30 14:34:12;;;;;;;2.60;2.27;;;19.10;99.90;;;;;;6172620;23;20348;-86
2021/05/30 14:37:05;;;;;;;2.37;2.20;;;19.20;99.90;;;;;;6031005;23;20462;-85
2021/05/30 14:40:14;;;;;;;3.60;3.30;;;19.30;99.90;;;;;;6029514;23;20426;-85
2021/05/30 14:42:51;;;;;;;3.10;2.70;;;19.30;99.90;;;;;;6028958;23;20371;-86
2021/05/30 14:45:29;;;;;;;3.70;2.97;;;19.10;99.90;;;;;;6038157;23;20387;-85
2021/05/30 14:48:10;;;;;;;3.87;3.00;;;18.70;99.90;;;;;;6142640;23;20387;-86
2021/05/30 14:50:53;;;;;;;4.17;3.87;;;18.80;99.90;;;;;;6142927;23;20475;-85
2021/05/30 14:54:02;;;;;;;2.47;2.27;;;18.80;99.90;;;;;;6166730;23;20419;-85
2021/05/30 14:56:47;;;;;;;3.93;2.27;;;18.80;99.90;;;;;;6160591;23;20399;-85
2021/05/30 15:13:12;;;;;;;3.27;2.87;;;18.80;99.90;;;;;;6226259;23;20471;-84
2021/05/30 15:15:44;;;;;;;2.20;1.93;;;18.80;99.90;;;;;;6226254;23;20366;-83
2021/05/30 15:18:37;;;;;;;2.80;2.60;;;18.80;99.90;;;;;;6197166;23;20221;-84
2021/05/30 15:21:15;;;;;;;2.83;2.20;;;18.80;99.90;;;;;;6195716;23;20351;-83
2021/05/30 15:23:51;;;;;;;2.57;1.87;;;18.80;99.90;;;;;;6195748;23;20374;-84
2021/05/30 15:26:33;;;;;;;7.40;2.40;;;19.00;99.90;;;;;;6193861;23;20386;-84
2021/05/30 15:29:15;;;;;;;2.50;2.30;;;19.10;99.90;;;;;;6195221;23;20506;-84
2021/05/30 15:31:53;;;;;;;4.53;2.50;;;19.00;99.90;;;;;;6169031;23;20415;-85
2021/05/30 15:34:23;;;;;;;2.97;2.67;;;18.80;99.90;;;;;;6194261;23;20359;-84